Time;durP1;ratioP1;P1;durP2;ratioP2;P2;SDS_P1;SDS_P2;PMS_P1;PMS_P2;Temp;Humidity;BMP_temperature;BMP_pressure;BME280_temperature;BME280_humidity;BME280_pressure;Samples;Min_cycle;Max_cycle;Signal;HPM_P1;HPM_P2
2023/07/20 00:00:26;;;;;;;5.57;1.17;;;;;;;14.70;68.44;99588.31;5026580;28;20084;-69
2023/07/20 00:02:51;;;;;;;2.95;1.15;;;;;;;14.66;68.75;99581.50;5026658;28;20052;-70
2023/07/20 00:05:24;;;;;;;2.65;1.10;;;;;;;14.56;68.82;99560.97;5044429;28;20029;-70
2023/07/20 00:07:51;;;;;;;7.07;0.95;;;;;;;14.66;68.90;99576.28;5044380;28;20036;-70
2023/07/20 00:10:17;;;;;;;3.67;1.20;;;;;;;14.64;68.76;99573.72;5042859;28;20025;-70
2023/07/20 00:12:47;;;;;;;3.22;1.08;;;;;;;14.65;68.76;99574.59;5043916;28;20032;-69
2023/07/20 00:15:13;;;;;;;9.20;1.85;;;;;;;14.60;69.27;99575.59;5026513;28;20040;-69
2023/07/20 00:17:39;;;;;;;8.25;1.27;;;;;;;14.59;69.34;99570.44;5044171;28;20474;-70
2023/07/20 00:20:06;;;;;;;3.30;1.02;;;;;;;14.62;69.36;99562.47;5044132;28;20032;-68
2023/07/20 00:22:31;;;;;;;5.63;0.93;;;;;;;14.61;69.31;99564.25;5042878;28;20082;-70
2023/07/20 00:24:57;;;;;;;3.03;1.00;;;;;;;14.60;69.47;99561.72;5043481;28;20124;-69
2023/07/20 00:27:22;;;;;;;7.75;1.08;;;;;;;14.60;69.40;99559.94;5026309;28;20033;-68
2023/07/20 00:29:47;;;;;;;0.93;0.82;;;;;;;14.63;69.34;99564.19;5043649;28;20026;-69
2023/07/20 00:32:13;;;;;;;5.35;1.67;;;;;;;14.63;69.62;99557.19;5043977;28;20032;-70
2023/07/20 00:34:38;;;;;;;2.30;1.15;;;;;;;14.61;69.49;99555.56;5044038;28;20026;-69
2023/07/20 00:37:04;;;;;;;14.20;2.45;;;;;;;14.63;69.60;99553.75;5043934;28;20018;-69
2023/07/20 00:39:29;;;;;;;2.97;1.30;;;;;;;14.59;69.71;99550.41;5043827;28;20013;-70
2023/07/20 00:41:55;;;;;;;4.82;1.73;;;;;;;14.62;69.70;99554.63;5043919;28;20401;-69
2023/07/20 00:44:20;;;;;;;7.10;1.23;;;;;;;14.58;69.39;99547.84;5043684;28;20052;-70
2023/07/20 00:46:46;;;;;;;3.15;0.95;;;;;;;14.58;69.42;99548.72;5043814;28;20032;-69
2023/07/20 00:49:12;;;;;;;2.75;0.80;;;;;;;14.59;69.48;99550.41;5043811;28;20017;-69
2023/07/20 00:51:37;;;;;;;3.30;0.88;;;;;;;14.59;69.42;99542.56;5043511;28;20347;-70
2023/07/20 00:54:03;;;;;;;6.13;1.10;;;;;;;14.57;69.69;99540.94;5046346;28;20021;-69
2023/07/20 00:56:28;;;;;;;2.17;1.27;;;;;;;14.56;70.06;99541.81;5047903;28;20076;-70
2023/07/20 00:58:54;;;;;;;3.63;0.77;;;;;;;14.53;69.93;99540.19;5047556;28;20025;-69
2023/07/20 01:01:20;;;;;;;3.95;1.55;;;;;;;14.49;70.05;99528.16;5047727;28;20312;-70
2023/07/20 01:03:45;;;;;;;4.47;2.10;;;;;;;14.50;70.46;99540.31;5047464;28;20267;-70
2023/07/20 01:06:41;;;;;;;1.52;0.80;;;;;;;14.49;70.59;99538.59;5047763;28;20497;-70
2023/07/20 01:09:15;;;;;;;2.15;1.08;;;;;;;14.45;70.97;99540.50;5047718;28;20021;-70
2023/07/20 01:11:46;;;;;;;4.28;2.13;;;;;;;14.47;71.00;99546.50;5047739;28;20049;-69
2023/07/20 01:14:12;;;;;;;1.25;0.80;;;;;;;14.48;70.95;99542.13;5047363;28;20036;-70
2023/07/20 01:16:37;;;;;;;0.77;0.73;;;;;;;14.49;70.78;99536.84;5029681;28;20030;-69
2023/07/20 01:19:03;;;;;;;5.10;2.08;;;;;;;14.50;71.10;99543.75;5047459;28;20389;-69
2023/07/20 01:21:39;;;;;;;2.70;0.80;;;;;;;14.49;70.77;99538.59;5047560;28;20021;-70
2023/07/20 01:24:18;;;;;;;8.45;1.42;;;;;;;14.50;70.59;99528.09;5045994;28;20073;-69
2023/07/20 01:27:25;;;;;;;12.77;1.10;;;;;;;14.53;70.33;99529.75;5047344;28;20022;-69
2023/07/20 01:30:12;;;;;;;1.83;0.70;;;;;;;14.54;70.04;99536.66;5045588;28;20056;-70
2023/07/20 01:32:40;;;;;;;5.15;1.27;;;;;;;14.50;69.81;99538.53;5029307;28;20140;-70
2023/07/20 01:35:08;;;;;;;5.25;0.65;;;;;;;14.48;69.70;99537.75;5047296;28;20021;-69
2023/07/20 01:37:34;;;;;;;2.38;0.77;;;;;;;14.52;69.48;99535.88;5047104;28;20068;-69
2023/07/20 01:40:00;;;;;;;1.40;0.50;;;;;;;14.46;69.41;99528.25;5046979;28;20033;-70
2023/07/20 01:42:26;;;;;;;1.58;0.68;;;;;;;14.47;69.31;99535.22;5047141;28;20036;-70
2023/07/20 01:44:54;;;;;;;2.92;0.85;;;;;;;14.48;69.26;99522.09;5046603;28;20024;-69
2023/07/20 01:47:19;;;;;;;1.98;1.23;;;;;;;14.47;69.37;99530.00;5046987;28;20108;-69
2023/07/20 01:49:45;;;;;;;7.20;1.33;;;;;;;14.47;69.12;99528.22;5046759;28;20037;-69
2023/07/20 01:52:10;;;;;;;1.67;0.70;;;;;;;14.48;69.40;99526.47;5046843;28;20022;-68
2023/07/20 01:54:36;;;;;;;0.82;0.63;;;;;;;14.44;69.70;99517.06;5028918;28;20025;-68
2023/07/20 01:57:02;;;;;;;5.50;0.80;;;;;;;14.52;69.36;99533.25;5029213;28;20025;-69
2023/07/20 01:59:27;;;;;;;1.77;0.77;;;;;;;14.47;69.50;99527.38;5028597;28;20025;-69
2023/07/20 02:01:53;;;;;;;16.27;1.42;;;;;;;14.45;69.41;99521.34;5046617;28;20079;-68
2023/07/20 02:04:18;;;;;;;2.30;0.93;;;;;;;14.41;69.47;99517.19;5044711;28;20031;-69
2023/07/20 02:06:44;;;;;;;1.80;0.93;;;;;;;14.34;69.33;99506.97;5046413;28;20467;-69
2023/07/20 02:09:09;;;;;;;3.47;1.17;;;;;;;14.42;69.34;99516.25;5046370;28;20021;-69
2023/07/20 02:11:34;;;;;;;1.15;0.63;;;;;;;14.37;68.89;99514.69;5046538;28;20490;-69
2023/07/20 02:14:00;;;;;;;1.42;0.65;;;;;;;14.36;68.97;99512.97;5046227;28;20489;-70
2023/07/20 02:16:25;;;;;;;2.00;1.00;;;;;;;14.35;69.38;99510.41;5028681;28;20049;-69
2023/07/20 02:18:50;;;;;;;3.50;1.60;;;;;;;14.38;69.66;99518.13;5046306;28;20021;-70
2023/07/20 02:21:16;;;;;;;7.53;1.13;;;;;;;14.32;69.88;99514.00;5046149;28;20028;-71
2023/07/20 02:23:41;;;;;;;2.47;1.38;;;;;;;14.32;70.17;99511.38;5045112;28;20123;-71
2023/07/20 02:26:07;;;;;;;1.92;1.10;;;;;;;14.37;70.21;99509.47;5045991;28;20053;-70
2023/07/20 02:28:32;;;;;;;3.03;0.90;;;;;;;14.31;70.76;99508.84;5045878;28;20108;-70
2023/07/20 02:30:57;;;;;;;3.85;1.00;;;;;;;14.31;70.67;99506.22;5046057;28;20029;-70
2023/07/20 02:33:23;;;;;;;2.22;1.00;;;;;;;14.29;71.93;99510.66;5044828;28;20024;-70
2023/07/20 02:35:49;;;;;;;0.88;0.68;;;;;;;14.23;72.31;99516.97;5044773;28;20018;-69
2023/07/20 02:38:14;;;;;;;2.30;1.42;;;;;;;14.20;72.49;99511.88;5046116;28;20018;-69
2023/07/20 02:40:39;;;;;;;2.28;1.00;;;;;;;14.16;72.66;99505.03;5046065;28;20025;-69
2023/07/20 02:43:05;;;;;;;0.80;0.60;;;;;;;14.15;72.56;99508.56;5045550;28;20025;-69
2023/07/20 02:45:30;;;;;;;6.57;0.77;;;;;;;14.17;72.64;99506.75;5046204;28;20014;-68
2023/07/20 02:47:56;;;;;;;3.97;1.30;;;;;;;14.08;73.31;99507.94;5045754;28;20059;-69
2023/07/20 02:50:22;;;;;;;4.95;1.23;;;;;;;14.02;73.37;99503.81;5027810;28;20017;-69
2023/07/20 02:52:47;;;;;;;0.77;0.73;;;;;;;14.05;73.08;99506.31;5045784;28;20413;-69
2023/07/20 02:55:13;;;;;;;4.93;0.80;;;;;;;14.05;73.66;99503.69;5045659;28;20029;-69
2023/07/20 02:57:38;;;;;;;4.05;0.90;;;;;;;14.06;73.70;99505.38;5045546;28;20084;-70
2023/07/20 03:00:07;;;;;;;2.40;0.90;;;;;;;13.99;73.85;99499.53;5045329;28;20029;-69
2023/07/20 03:02:33;;;;;;;1.50;0.95;;;;;;;14.03;74.00;99502.91;5045847;28;20075;-69
2023/07/20 03:04:58;;;;;;;3.58;1.00;;;;;;;14.05;73.91;99500.22;5045545;28;20424;-69
2023/07/20 03:07:26;;;;;;;9.57;2.47;;;;;;;14.02;73.91;99496.00;5045434;28;20022;-69
2023/07/20 03:09:51;;;;;;;1.33;0.70;;;;;;;14.06;73.88;99492.34;5045386;28;20021;-71
2023/07/20 03:12:17;;;;;;;0.40;0.40;;;;;;;14.10;73.78;99495.69;5045296;28;20505;-70
2023/07/20 03:14:42;;;;;;;2.17;1.05;;;;;;;14.05;73.72;99487.19;5044781;28;20462;-69
2023/07/20 03:17:08;;;;;;;1.15;0.73;;;;;;;14.09;73.46;99500.06;5044859;28;20026;-69
2023/07/20 03:19:33;;;;;;;4.28;1.63;;;;;;;14.09;73.16;99497.44;5043751;28;20385;-71
2023/07/20 03:21:59;;;;;;;0.35;0.35;;;;;;;14.15;73.13;99500.75;5045308;28;20021;-70
2023/07/20 03:24:24;;;;;;;4.13;1.10;;;;;;;14.10;72.56;99488.72;5044901;28;20105;-69
2023/07/20 03:26:50;;;;;;;1.42;0.80;;;;;;;14.07;72.37;99478.41;5043652;28;20049;-70
2023/07/20 03:29:16;;;;;;;4.55;1.00;;;;;;;14.16;72.20;99499.81;5044805;28;20068;-68
2023/07/20 03:31:41;;;;;;;1.50;0.85;;;;;;;14.22;71.63;99497.84;5045089;28;20049;-70
2023/07/20 03:34:08;;;;;;;6.38;0.82;;;;;;;14.23;71.35;99501.31;5044991;28;20025;-70
2023/07/20 03:36:34;;;;;;;4.57;1.42;;;;;;;14.11;71.11;99486.94;5043498;28;20028;-70
2023/07/20 03:38:59;;;;;;;1.08;0.93;;;;;;;14.20;71.01;99506.66;5044781;28;20017;-70
2023/07/20 03:41:24;;;;;;;4.57;0.82;;;;;;;14.16;70.60;99497.22;5043481;28;20021;-69
2023/07/20 03:43:50;;;;;;;9.30;1.45;;;;;;;14.24;70.63;99503.00;5044435;28;20100;-70
2023/07/20 03:46:16;;;;;;;1.80;0.65;;;;;;;14.27;70.10;99505.50;5044731;28;20041;-70
2023/07/20 03:48:41;;;;;;;2.58;1.13;;;;;;;14.27;69.53;99502.88;5044610;28;20021;-70
2023/07/20 03:51:06;;;;;;;0.93;0.70;;;;;;;14.27;68.80;99502.88;5044622;28;20029;-70
2023/07/20 03:53:32;;;;;;;5.53;0.80;;;;;;;14.34;67.90;99506.97;5026790;28;20061;-70
2023/07/20 03:55:58;;;;;;;3.30;0.93;;;;;;;14.27;67.06;99507.25;5043205;28;20035;-70
2023/07/20 03:58:23;;;;;;;0.93;0.88;;;;;;;14.21;66.89;99497.91;5044394;28;20025;-70
2023/07/20 04:00:50;;;;;;;1.88;0.98;;;;;;;14.23;66.88;99506.53;5044399;28;20025;-70
2023/07/20 04:03:16;;;;;;;2.75;0.40;;;;;;;14.25;66.85;99499.47;5044495;28;20041;-69
2023/07/20 04:05:43;;;;;;;3.35;0.60;;;;;;;14.24;66.47;99497.78;5044330;28;20045;-70
2023/07/20 04:08:09;;;;;;;4.03;1.00;;;;;;;14.22;66.38;99491.75;5043045;28;20037;-69
2023/07/20 04:10:35;;;;;;;6.05;1.30;;;;;;;14.13;66.31;99483.38;5044399;28;20022;-69
2023/07/20 04:13:00;;;;;;;1.90;0.88;;;;;;;14.17;66.09;99491.09;5044003;28;20559;-69
2023/07/20 04:15:26;;;;;;;1.00;0.65;;;;;;;14.18;66.23;99488.44;5044397;28;20093;-70
2023/07/20 04:17:51;;;;;;;1.65;0.73;;;;;;;14.22;66.07;99490.00;5044153;28;20021;-70
2023/07/20 04:20:18;;;;;;;1.20;0.65;;;;;;;14.21;65.79;99482.22;5044247;28;20029;-69
2023/07/20 04:22:43;;;;;;;1.02;1.00;;;;;;;14.12;65.26;99484.28;5044157;28;20069;-71
2023/07/20 04:25:09;;;;;;;1.67;0.75;;;;;;;14.20;64.76;99493.59;5043994;28;20056;-70
2023/07/20 04:27:35;;;;;;;5.90;0.68;;;;;;;14.25;64.58;99491.63;5043768;28;20051;-70
2023/07/20 04:30:02;;;;;;;0.50;0.50;;;;;;;14.47;64.65;99494.25;5043722;28;20028;-68
2023/07/20 04:32:27;;;;;;;4.60;0.55;;;;;;;14.84;64.70;99499.81;5044125;28;20113;-70
2023/07/20 04:34:53;;;;;;;0.95;0.52;;;;;;;15.22;63.55;99500.91;5044232;28;20026;-70
2023/07/20 04:37:18;;;;;;;0.95;0.55;;;;;;;15.56;62.37;99504.66;5044099;28;20462;-70
2023/07/20 04:39:44;;;;;;;4.65;1.10;;;;;;;15.81;60.73;99471.31;5043800;28;20081;-71
2023/07/20 04:42:09;;;;;;;1.20;0.50;;;;;;;16.06;60.66;99493.78;5044192;28;20025;-70
2023/07/20 04:44:34;;;;;;;3.83;0.57;;;;;;;16.31;60.75;99495.28;5043769;28;20107;-70
2023/07/20 04:47:00;;;;;;;0.60;0.50;;;;;;;16.95;60.00;99484.34;5043991;28;20021;-70
2023/07/20 04:49:25;;;;;;;3.15;0.40;;;;;;;17.73;58.16;99485.69;5043901;28;20050;-70
2023/07/20 04:51:51;;;;;;;0.60;0.52;;;;;;;18.30;57.33;99487.03;5044238;28;20029;-71
2023/07/20 04:54:18;;;;;;;0.25;0.20;;;;;;;18.88;55.17;99486.41;5044045;28;20137;-70
2023/07/20 04:56:44;;;;;;;2.63;0.57;;;;;;;19.43;52.26;99492.00;5042771;28;20025;-69
2023/07/20 04:59:09;;;;;;;3.60;0.77;;;;;;;19.59;51.99;99479.69;5025807;28;20254;-70
2023/07/20 05:01:34;;;;;;;2.17;0.60;;;;;;;19.25;49.75;99485.22;5042523;28;20021;-70
2023/07/20 05:04:00;;;;;;;2.15;0.63;;;;;;;18.80;51.28;99499.16;5043789;28;20030;-70
2023/07/20 05:06:25;;;;;;;1.48;0.55;;;;;;;18.55;52.33;99488.25;5043875;28;20014;-70
2023/07/20 05:08:51;;;;;;;1.63;0.63;;;;;;;18.95;52.48;99485.13;5043929;28;20052;-70
2023/07/20 05:11:16;;;;;;;0.93;0.60;;;;;;;19.50;51.35;99487.22;5042578;28;20056;-69
2023/07/20 05:13:42;;;;;;;0.55;0.40;;;;;;;19.19;49.85;99486.41;5043545;28;20029;-70
2023/07/20 05:16:08;;;;;;;1.30;0.80;;;;;;;18.52;49.64;99493.69;5043945;28;20029;-70
2023/07/20 05:18:33;;;;;;;2.40;0.73;;;;;;;17.93;50.57;99496.88;5043669;28;20020;-69
2023/07/20 05:20:58;;;;;;;4.30;2.83;;;;;;;17.58;51.80;99496.06;5025717;28;20029;-71
2023/07/20 05:23:24;;;;;;;0.52;0.38;;;;;;;17.26;51.97;99493.31;5043437;28;20078;-68
2023/07/20 05:25:57;;;;;;;1.38;0.73;;;;;;;16.95;52.58;99494.81;5043449;28;20369;-69
2023/07/20 05:28:23;;;;;;;1.50;0.60;;;;;;;16.87;53.08;99497.00;5043433;28;20026;-68
2023/07/20 05:30:51;;;;;;;6.53;0.68;;;;;;;16.75;53.52;99491.44;5043522;28;20036;-70
2023/07/20 05:33:16;;;;;;;1.65;0.50;;;;;;;16.66;53.68;99490.09;5043469;28;20029;-70
2023/07/20 05:35:41;;;;;;;5.40;1.08;;;;;;;16.54;53.71;99502.03;5043706;28;20022;-69
2023/07/20 05:38:07;;;;;;;0.35;0.35;;;;;;;16.44;54.27;99485.91;5043685;28;20076;-69
2023/07/20 05:40:32;;;;;;;1.27;0.30;;;;;;;16.40;54.76;99483.50;5045646;28;20545;-71
2023/07/20 05:42:58;;;;;;;0.73;0.50;;;;;;;16.23;55.19;99487.75;5046889;28;20401;-70
2023/07/20 05:45:24;;;;;;;3.83;0.57;;;;;;;16.13;55.74;99484.75;5046998;28;20021;-69
2023/07/20 05:47:49;;;;;;;2.22;0.57;;;;;;;16.22;55.90;99491.31;5045559;28;20030;-69
2023/07/20 05:50:15;;;;;;;0.85;0.50;;;;;;;16.15;56.22;99479.44;5046771;28;20049;-70
2023/07/20 05:52:41;;;;;;;2.50;0.50;;;;;;;16.12;56.34;99490.06;5047222;28;20057;-69
2023/07/20 05:55:07;;;;;;;1.17;0.85;;;;;;;16.05;56.51;99495.56;5046792;28;20032;-70
2023/07/20 05:57:33;;;;;;;0.60;0.45;;;;;;;15.93;57.34;99481.22;5046783;28;20025;-70
2023/07/20 05:59:58;;;;;;;4.05;0.40;;;;;;;15.88;57.50;99482.38;5046555;28;20022;-70
2023/07/20 06:02:24;;;;;;;1.80;0.65;;;;;;;15.89;57.72;99489.28;5046844;28;20021;-70
2023/07/20 06:04:49;;;;;;;5.15;0.68;;;;;;;16.31;58.71;99490.88;5046600;28;20113;-69
2023/07/20 06:07:15;;;;;;;8.52;0.90;;;;;;;16.99;58.00;99501.63;5046533;28;20032;-69
2023/07/20 06:09:40;;;;;;;1.90;0.60;;;;;;;17.37;56.72;99486.66;5046481;28;20284;-68
2023/07/20 06:12:06;;;;;;;5.07;0.60;;;;;;;17.39;56.56;99487.44;5046681;28;20100;-68
2023/07/20 06:14:32;;;;;;;1.95;0.55;;;;;;;17.17;56.77;99494.63;5046286;28;20029;-69
2023/07/20 06:16:57;;;;;;;0.57;0.32;;;;;;;16.89;57.44;99485.50;5046485;28;20028;-70
2023/07/20 06:19:23;;;;;;;1.83;0.38;;;;;;;16.75;58.20;99485.34;5046319;28;20032;-70
2023/07/20 06:21:49;;;;;;;4.07;0.38;;;;;;;17.02;58.79;99480.50;5046366;28;20477;-69
2023/07/20 06:24:15;;;;;;;3.20;0.65;;;;;;;17.25;57.93;99477.66;5046039;28;20049;-69
2023/07/20 06:26:41;;;;;;;1.00;0.45;;;;;;;17.02;58.13;99487.50;5046275;28;20025;-68
2023/07/20 06:29:06;;;;;;;0.47;0.30;;;;;;;16.65;58.06;99472.69;5045907;28;20029;-67
2023/07/20 06:31:33;;;;;;;4.88;1.40;;;;;;;16.40;58.70;99473.03;5045819;28;20021;-68
2023/07/20 06:33:59;;;;;;;0.82;0.40;;;;;;;16.18;59.44;99474.06;5044770;28;20466;-69
2023/07/20 06:36:25;;;;;;;2.20;0.60;;;;;;;16.43;60.20;99485.97;5046031;28;20037;-69
2023/07/20 06:38:51;;;;;;;1.85;0.50;;;;;;;16.78;60.09;99472.06;5044677;28;20044;-70
2023/07/20 06:41:17;;;;;;;0.35;0.35;;;;;;;17.04;59.32;99477.81;5045991;28;20029;-69
2023/07/20 06:43:42;;;;;;;1.63;0.40;;;;;;;17.12;58.95;99480.06;5045710;28;20036;-70
2023/07/20 06:46:07;;;;;;;2.63;0.70;;;;;;;16.97;58.49;99478.13;5045965;28;20021;-69
2023/07/20 06:48:33;;;;;;;3.22;0.63;;;;;;;16.93;58.75;99479.19;5045825;28;20072;-69
2023/07/20 06:50:58;;;;;;;0.98;0.70;;;;;;;17.50;60.24;99473.75;5044256;28;20056;-70
2023/07/20 06:53:24;;;;;;;1.10;0.40;;;;;;;18.41;58.98;99480.31;5045752;28;20494;-70
2023/07/20 06:55:49;;;;;;;0.70;0.40;;;;;;;19.52;56.88;99471.34;5046022;28;20067;-70
2023/07/20 06:58:15;;;;;;;2.10;0.82;;;;;;;20.50;55.92;99465.25;5045306;28;20029;-69
2023/07/20 07:00:40;;;;;;;1.30;0.63;;;;;;;21.20;50.78;99470.34;5045756;28;20017;-70
2023/07/20 07:03:07;;;;;;;4.63;0.60;;;;;;;21.24;51.19;99465.72;5045567;28;20032;-68
2023/07/20 07:05:36;;;;;;;2.88;0.77;;;;;;;20.98;49.41;99461.28;5045509;28;20021;-69
2023/07/20 07:08:02;;;;;;;1.20;0.30;;;;;;;20.31;49.89;99468.22;5045424;28;20024;-69
2023/07/20 07:10:27;;;;;;;0.50;0.38;;;;;;;19.79;50.80;99452.97;5045371;28;20033;-70
2023/07/20 07:12:53;;;;;;;0.95;0.50;;;;;;;19.49;51.20;99476.78;5045428;28;20032;-69
2023/07/20 07:15:18;;;;;;;2.20;0.60;;;;;;;19.27;51.56;99462.28;5045181;28;20043;-69
2023/07/20 07:17:44;;;;;;;4.47;0.63;;;;;;;18.94;51.33;99472.06;5045312;28;20502;-71
2023/07/20 07:20:09;;;;;;;1.50;0.50;;;;;;;18.65;52.62;99471.97;5043999;28;20076;-70
2023/07/20 07:22:35;;;;;;;8.88;0.85;;;;;;;18.37;53.67;99473.53;5045383;28;20040;-68
2023/07/20 07:25:00;;;;;;;3.95;0.40;;;;;;;18.17;53.57;99478.13;5045114;28;20053;-68
2023/07/20 07:27:25;;;;;;;1.55;0.40;;;;;;;17.79;55.12;99476.63;5045141;28;20021;-69
2023/07/20 07:29:51;;;;;;;6.28;0.63;;;;;;;17.71;56.04;99477.03;5044653;28;20492;-69
2023/07/20 07:32:16;;;;;;;0.30;0.30;;;;;;;17.55;56.34;99472.59;5045002;28;20025;-70
2023/07/20 07:34:46;;;;;;;1.83;0.77;;;;;;;17.43;57.60;99478.47;5045247;28;20029;-69
2023/07/20 07:37:12;;;;;;;0.30;0.30;;;;;;;17.29;57.74;99482.69;5045025;28;20056;-70
2023/07/20 07:39:37;;;;;;;3.42;0.50;;;;;;;17.20;57.93;99485.78;5043840;28;20017;-69
2023/07/20 07:42:03;;;;;;;0.80;0.52;;;;;;;16.94;59.66;99480.88;5044826;28;20034;-69
2023/07/20 07:44:28;;;;;;;3.50;0.63;;;;;;;16.77;59.96;99484.34;5044589;28;20035;-70
2023/07/20 07:46:54;;;;;;;0.50;0.50;;;;;;;16.52;61.05;99485.53;5043388;28;20029;-68
2023/07/20 07:49:19;;;;;;;0.75;0.52;;;;;;;16.19;62.12;99478.34;5044678;28;20028;-69
2023/07/20 07:51:44;;;;;;;1.65;0.68;;;;;;;15.98;62.23;99489.75;5044649;28;20021;-69
2023/07/20 07:54:10;;;;;;;0.95;0.50;;;;;;;15.72;63.81;99493.50;5044695;28;20414;-69
2023/07/20 07:56:36;;;;;;;4.20;0.80;;;;;;;15.61;64.80;99489.63;5044634;28;20022;-69
2023/07/20 07:59:02;;;;;;;3.78;1.25;;;;;;;15.83;66.56;99483.41;5026068;28;20103;-67
2023/07/20 08:01:28;;;;;;;1.45;0.50;;;;;;;16.55;68.09;99487.16;5043870;28;20029;-68
2023/07/20 08:03:54;;;;;;;1.95;0.65;;;;;;;17.96;66.85;99476.56;5044474;28;20060;-69
2023/07/20 08:06:19;;;;;;;0.70;0.60;;;;;;;18.95;63.25;99486.91;5043000;28;20025;-68
2023/07/20 08:08:44;;;;;;;2.20;0.63;;;;;;;19.31;59.76;99475.16;5044320;28;20025;-67
2023/07/20 08:11:10;;;;;;;1.02;0.50;;;;;;;19.17;58.66;99496.22;5044223;28;20025;-68
2023/07/20 08:13:36;;;;;;;0.55;0.30;;;;;;;19.34;58.21;99496.97;5044000;28;20022;-68
2023/07/20 08:16:04;;;;;;;0.93;0.40;;;;;;;20.05;58.56;99483.91;5044329;28;20096;-67
2023/07/20 08:18:31;;;;;;;3.88;0.70;;;;;;;20.84;54.52;99479.78;5044204;28;20025;-69
2023/07/20 08:20:56;;;;;;;1.17;0.50;;;;;;;21.73;52.98;99487.03;5042893;28;20036;-68
2023/07/20 08:23:21;;;;;;;6.60;0.75;;;;;;;22.02;50.83;99482.38;5044137;28;20026;-69
2023/07/20 08:25:47;;;;;;;0.65;0.40;;;;;;;22.00;51.60;99489.53;5043950;28;20045;-68
2023/07/20 08:28:14;;;;;;;4.68;0.80;;;;;;;22.71;51.10;99488.03;5043931;28;20026;-68
2023/07/20 08:30:44;;;;;;;0.40;0.30;;;;;;;23.49;48.77;99476.94;5043779;28;20017;-68
2023/07/20 08:33:12;;;;;;;0.98;0.43;;;;;;;24.47;47.28;99475.47;5044073;28;20021;-69
2023/07/20 08:35:37;;;;;;;1.63;0.77;;;;;;;25.24;45.87;99475.34;5044086;28;20030;-68
2023/07/20 08:38:04;;;;;;;1.08;0.63;;;;;;;25.90;45.41;99478.56;5042638;28;20118;-67
2023/07/20 08:40:33;;;;;;;0.55;0.32;;;;;;;26.47;42.31;99479.84;5043943;28;20022;-68
2023/07/20 08:43:02;;;;;;;0.90;0.43;;;;;;;26.91;40.93;99479.38;5044065;28;20036;-68
2023/07/20 08:45:31;;;;;;;0.45;0.20;;;;;;;27.24;39.24;99478.22;5043868;28;20025;-69
2023/07/20 08:47:59;;;;;;;1.02;0.30;;;;;;;27.64;38.36;99485.09;5043877;28;20066;-69
2023/07/20 08:50:26;;;;;;;0.20;0.20;;;;;;;27.89;36.30;99490.78;5043678;28;20032;-68
2023/07/20 08:52:52;;;;;;;0.82;0.22;;;;;;;28.05;35.88;99483.94;5043917;28;20462;-68
2023/07/20 08:55:20;;;;;;;1.52;0.68;;;;;;;28.33;37.72;99481.25;5026044;28;20033;-68
2023/07/20 08:57:46;;;;;;;1.38;0.38;;;;;;;29.05;36.56;99480.38;5043877;28;20014;-67
2023/07/20 09:00:13;;;;;;;4.28;0.20;;;;;;;28.39;35.02;99474.47;5043411;28;20068;-68
2023/07/20 09:02:41;;;;;;;1.90;0.32;;;;;;;27.42;36.08;99502.28;5043717;28;20071;-68
2023/07/20 09:05:08;;;;;;;0.20;0.20;;;;;;;27.10;35.19;99502.50;5042077;28;20117;-67
2023/07/20 09:07:36;;;;;;;2.25;0.30;;;;;;;27.11;35.23;99498.00;5043660;28;20025;-67
2023/07/20 09:10:05;;;;;;;0.55;0.22;;;;;;;26.30;35.01;99489.28;5042974;28;20021;-67
2023/07/20 09:12:38;;;;;;;0.30;0.30;;;;;;;25.46;37.44;99503.53;5043649;28;20087;-68
2023/07/20 09:15:05;;;;;;;1.02;0.22;;;;;;;25.69;37.04;99502.56;5046418;28;20025;-68
2023/07/20 09:17:33;;;;;;;0.57;0.30;;;;;;;25.28;37.04;99508.63;5047590;28;20033;-68
2023/07/20 09:20:07;;;;;;;0.63;0.25;;;;;;;25.08;37.31;99510.34;5047386;28;20056;-67
2023/07/20 09:22:33;;;;;;;6.32;0.28;;;;;;;25.26;37.17;99507.91;5047259;28;20032;-67
2023/07/20 09:24:59;;;;;;;0.65;0.25;;;;;;;25.93;36.62;99494.25;5047110;28;20045;-68
2023/07/20 09:27:38;;;;;;;0.95;0.50;;;;;;;26.41;35.82;99494.53;5029279;28;20018;-68
2023/07/20 09:30:07;;;;;;;0.63;0.20;;;;;;;26.45;36.48;99495.09;5046940;28;20049;-71
2023/07/20 09:32:39;;;;;;;0.82;0.30;;;;;;;26.45;35.81;99503.94;5047235;28;20530;-69
2023/07/20 09:35:05;;;;;;;1.40;0.28;;;;;;;26.51;35.12;99502.50;5047255;28;20089;-71
2023/07/20 09:37:33;;;;;;;0.20;0.20;;;;;;;26.71;34.97;99502.53;5047180;28;20370;-72
2023/07/20 09:39:59;;;;;;;0.60;0.28;;;;;;;27.05;35.10;99503.91;5047051;28;20025;-72
2023/07/20 09:42:25;;;;;;;1.80;0.45;;;;;;;27.43;34.89;99504.81;5047909;28;20029;-74
2023/07/20 09:44:52;;;;;;;1.73;0.30;;;;;;;27.37;33.32;99497.41;5047713;28;20075;-73
2023/07/20 09:47:24;;;;;;;2.20;0.20;;;;;;;26.98;32.80;99508.97;5030051;28;20080;-73
2023/07/20 09:49:54;;;;;;;0.60;0.40;;;;;;;26.20;34.53;99506.09;5029894;28;20060;-72
2023/07/20 09:52:21;;;;;;;0.47;0.30;;;;;;;26.52;34.59;99506.84;5047724;28;20060;-72
2023/07/20 09:54:47;;;;;;;0.20;0.10;;;;;;;27.13;34.87;99506.72;5046597;28;20037;-73
2023/07/20 09:57:14;;;;;;;0.30;0.17;;;;;;;27.58;33.45;99510.50;5046635;28;20025;-72
2023/07/20 09:59:39;;;;;;;0.20;0.20;;;;;;;27.81;33.37;99520.00;5047661;28;20021;-72
2023/07/20 10:02:16;;;;;;;0.70;0.30;;;;;;;28.09;32.69;99509.31;5047473;28;20048;-72
2023/07/20 10:04:43;;;;;;;0.20;0.20;;;;;;;27.53;32.70;99518.09;5046262;28;20049;-72
2023/07/20 10:07:12;;;;;;;2.08;0.32;;;;;;;27.17;32.86;99499.28;5047572;28;20087;-72
2023/07/20 10:09:39;;;;;;;2.60;0.30;;;;;;;27.17;33.42;99508.13;5047105;28;20085;-72
2023/07/20 10:12:07;;;;;;;0.43;0.32;;;;;;;27.10;33.75;99517.66;5047311;28;20017;-72
2023/07/20 10:14:38;;;;;;;0.28;0.20;;;;;;;27.15;33.02;99509.22;5047172;28;20029;-71
2023/07/20 10:17:05;;;;;;;1.73;0.35;;;;;;;26.92;33.94;99513.00;5047413;28;20371;-72
2023/07/20 10:19:37;;;;;;;1.17;0.22;;;;;;;26.34;33.47;99507.53;5029338;28;20061;-72
2023/07/20 10:22:33;;;;;;;0.20;0.20;;;;;;;24.96;36.06;99513.06;5045752;28;20529;-72
2023/07/20 10:24:59;;;;;;;0.68;0.30;;;;;;;24.91;36.93;99514.38;5045001;28;20053;-73
2023/07/20 10:27:24;;;;;;;1.45;0.47;;;;;;;24.93;36.50;99523.94;5047218;28;20028;-71
2023/07/20 10:29:52;;;;;;;1.15;0.38;;;;;;;24.78;37.43;99509.25;5046784;28;20461;-71
2023/07/20 10:32:19;;;;;;;0.40;0.40;;;;;;;25.18;37.35;99511.22;5047071;28;20062;-72
2023/07/20 10:34:55;;;;;;;0.20;0.20;;;;;;;25.81;36.80;99516.59;5045890;28;20052;-72
2023/07/20 10:38:02;;;;;;;0.20;0.20;;;;;;;25.77;35.83;99520.53;5047075;28;20022;-72
2023/07/20 10:40:37;;;;;;;0.22;0.22;;;;;;;25.05;36.18;99507.94;4985479;28;20027;-73
2023/07/20 10:43:06;;;;;;;0.75;0.50;;;;;;;24.75;37.22;99512.97;4985936;28;20131;-72
2023/07/20 10:45:51;;;;;;;0.47;0.40;;;;;;;25.06;37.49;99517.59;4985306;28;20042;-72
2023/07/20 10:48:22;;;;;;;0.22;0.22;;;;;;;24.87;36.80;99516.44;4969126;28;20059;-72
2023/07/20 10:51:16;;;;;;;1.33;0.40;;;;;;;24.58;37.87;99519.69;4985415;28;20034;-72
2023/07/20 10:53:42;;;;;;;0.35;0.20;;;;;;;24.84;37.79;99520.19;4985444;28;20095;-72
2023/07/20 10:56:29;;;;;;;2.42;0.35;;;;;;;24.55;38.06;99520.78;4985079;28;20031;-72
2023/07/20 10:59:02;;;;;;;1.08;0.43;;;;;;;24.03;38.61;99526.63;4968807;28;20031;-72
2023/07/20 11:01:32;;;;;;;2.35;0.30;;;;;;;23.41;39.34;99521.69;4985322;28;20042;-73
2023/07/20 11:04:02;;;;;;;0.20;0.20;;;;;;;23.07;40.72;99535.66;4985256;28;20042;-72
2023/07/20 11:06:27;;;;;;;2.45;1.00;;;;;;;22.97;41.55;99524.09;4968965;28;20054;-73
2023/07/20 11:09:10;;;;;;;0.38;0.28;;;;;;;22.92;41.34;99532.38;4985089;28;20035;-73
2023/07/20 11:11:40;;;;;;;0.75;0.38;;;;;;;22.63;42.02;99528.28;5009687;28;20044;-73
2023/07/20 11:14:22;;;;;;;5.28;1.55;;;;;;;22.74;42.15;99532.78;5045911;28;20056;-73
2023/07/20 11:16:51;;;;;;;0.20;0.20;;;;;;;22.68;41.83;99533.25;5028638;28;20032;-70
2023/07/20 11:19:26;;;;;;;0.10;0.10;;;;;;;22.54;42.18;99529.75;5044884;28;20043;-73
2023/07/20 11:21:53;;;;;;;0.38;0.28;;;;;;;22.46;42.69;99539.22;5044155;28;20032;-72
2023/07/20 11:24:18;;;;;;;0.43;0.30;;;;;;;22.32;42.71;99541.06;5044895;28;20045;-72
2023/07/20 11:26:54;;;;;;;0.35;0.20;;;;;;;22.17;42.88;99535.06;5045026;28;20099;-72
2023/07/20 11:29:23;;;;;;;0.38;0.22;;;;;;;21.97;43.02;99536.47;5026923;28;20490;-73
2023/07/20 11:31:49;;;;;;;0.20;0.20;;;;;;;21.78;44.05;99538.63;5027073;28;20026;-73
2023/07/20 11:34:18;;;;;;;0.65;0.30;;;;;;;21.52;44.29;99538.59;5027149;28;20087;-72